Time;durP1;ratioP1;P1;durP2;ratioP2;P2;SDS_P1;SDS_P2;PMS_P1;PMS_P2;Temp;Humidity;BMP_temperature;BMP_pressure;BME280_temperature;BME280_humidity;BME280_pressure;Samples;Min_cycle;Max_cycle;Signal;HPM_P1;HPM_P2
2022/03/25 00:00:10;;;;;;;29.13;21.00;;;;;;;;;;510118;29;1545;-75
2022/03/25 00:00:25;;;;;;;29.17;21.10;;;;;;;;;;508515;29;1233;-76
2022/03/25 00:00:41;;;;;;;30.13;21.23;;;;;;;;;;507310;29;1274;-75
2022/03/25 00:00:56;;;;;;;29.00;21.40;;;;;;;;;;507649;29;794;-75
2022/03/25 00:01:12;;;;;;;29.13;21.25;;;;;;;;;;507056;29;988;-75
2022/03/25 00:01:28;;;;;;;30.35;20.83;;;;;;;;;;507208;29;782;-76
2022/03/25 00:01:43;;;;;;;35.33;21.77;;;;;;;;;;505846;29;1265;-75
2022/03/25 00:01:58;;;;;;;37.73;22.67;;;;;;;;;;507110;29;1302;-75
2022/03/25 00:02:14;;;;;;;31.90;21.77;;;;;;;;;;507622;29;806;-75
2022/03/25 00:02:29;;;;;;;29.17;21.03;;;;;;;;;;509053;29;818;-75
2022/03/25 00:02:44;;;;;;;30.93;21.37;;;;;;;;;;508993;29;789;-75
2022/03/25 00:03:00;;;;;;;30.97;21.97;;;;;;;;;;507372;29;1202;-75
2022/03/25 00:03:15;;;;;;;30.92;22.15;;;;;;;;;;507668;29;798;-75
2022/03/25 00:03:30;;;;;;;31.57;22.43;;;;;;;;;;507775;29;1645;-75
2022/03/25 00:03:46;;;;;;;32.70;22.40;;;;;;;;;;510576;28;1293;-75
2022/03/25 00:04:01;;;;;;;32.00;21.90;;;;;;;;;;508506;29;1269;-75
2022/03/25 00:04:17;;;;;;;31.93;21.97;;;;;;;;;;508875;29;944;-75
2022/03/25 00:04:32;;;;;;;31.83;22.17;;;;;;;;;;510251;29;834;-76
2022/03/25 00:04:48;;;;;;;29.70;21.37;;;;;;;;;;511119;29;835;-75
2022/03/25 00:05:04;;;;;;;30.05;21.73;;;;;;;;;;511231;29;814;-75
2022/03/25 00:05:20;;;;;;;32.22;22.40;;;;;;;;;;510870;29;797;-75
2022/03/25 00:05:36;;;;;;;32.35;22.15;;;;;;;;;;509373;29;1096;-75
2022/03/25 00:05:52;;;;;;;33.40;22.75;;;;;;;;;;507888;29;1319;-75
2022/03/25 00:06:08;;;;;;;36.20;22.88;;;;;;;;;;509206;29;1245;-75
2022/03/25 00:06:26;;;;;;;34.50;22.20;;;;;;;;;;509476;29;860;-75
2022/03/25 00:06:41;;;;;;;34.78;22.27;;;;;;;;;;509203;29;790;-75
2022/03/25 00:06:56;;;;;;;34.47;22.00;;;;;;;;;;507039;29;1175;-75
2022/03/25 00:07:12;;;;;;;32.35;22.35;;;;;;;;;;507555;29;927;-75
2022/03/25 00:07:27;;;;;;;30.83;22.83;;;;;;;;;;508161;29;988;-75
2022/03/25 00:07:43;;;;;;;34.05;22.55;;;;;;;;;;508275;29;1196;-76
2022/03/25 00:07:59;;;;;;;34.23;22.03;;;;;;;;;;508741;29;1166;-75
2022/03/25 00:08:14;;;;;;;31.20;21.63;;;;;;;;;;507547;29;1721;-75
2022/03/25 00:08:30;;;;;;;29.30;21.20;;;;;;;;;;509894;29;1353;-76
2022/03/25 00:08:46;;;;;;;29.27;21.17;;;;;;;;;;510713;28;1268;-75
2022/03/25 00:09:02;;;;;;;30.97;21.50;;;;;;;;;;511818;28;895;-75
2022/03/25 00:09:17;;;;;;;30.73;21.60;;;;;;;;;;509012;29;1293;-75
2022/03/25 00:09:32;;;;;;;30.53;21.43;;;;;;;;;;511122;28;865;-75
2022/03/25 00:09:47;;;;;;;31.53;22.07;;;;;;;;;;510936;29;1182;-75
2022/03/25 00:10:04;;;;;;;31.63;22.13;;;;;;;;;;509435;29;1293;-76
2022/03/25 00:10:19;;;;;;;32.40;22.05;;;;;;;;;;508120;29;1274;-75
2022/03/25 00:10:35;;;;;;;34.67;22.52;;;;;;;;;;509447;29;829;-75
2022/03/25 00:10:50;;;;;;;34.37;21.70;;;;;;;;;;507380;29;1194;-75
2022/03/25 00:11:05;;;;;;;31.40;21.67;;;;;;;;;;507210;29;743;-75
2022/03/25 00:11:20;;;;;;;31.80;22.33;;;;;;;;;;507377;29;842;-76
2022/03/25 00:11:36;;;;;;;30.70;21.67;;;;;;;;;;505507;29;1424;-75
2022/03/25 00:11:53;;;;;;;31.73;21.60;;;;;;;;;;507578;29;1114;-75
2022/03/25 00:12:08;;;;;;;31.88;21.98;;;;;;;;;;509923;29;899;-75
2022/03/25 00:12:24;;;;;;;31.58;22.00;;;;;;;;;;511346;28;1237;-76
2022/03/25 00:12:39;;;;;;;32.67;21.87;;;;;;;;;;509898;29;1207;-75
2022/03/25 00:12:54;;;;;;;32.23;21.90;;;;;;;;;;511677;29;892;-75
2022/03/25 00:13:10;;;;;;;33.10;22.30;;;;;;;;;;511208;29;827;-75
2022/03/25 00:13:26;;;;;;;33.00;22.38;;;;;;;;;;510966;28;1567;-75
2022/03/25 00:13:41;;;;;;;33.87;23.03;;;;;;;;;;510538;29;1318;-75
2022/03/25 00:13:56;;;;;;;35.40;22.80;;;;;;;;;;510106;29;801;-75
2022/03/25 00:14:12;;;;;;;33.92;22.13;;;;;;;;;;511466;29;936;-75
2022/03/25 00:14:27;;;;;;;33.22;22.38;;;;;;;;;;508979;29;1330;-75
2022/03/25 00:14:43;;;;;;;33.80;22.20;;;;;;;;;;507438;29;1170;-76
2022/03/25 00:14:58;;;;;;;32.67;22.07;;;;;;;;;;507820;29;731;-75
2022/03/25 00:15:13;;;;;;;30.90;22.00;;;;;;;;;;507009;29;905;-75
2022/03/25 00:15:29;;;;;;;33.43;21.97;;;;;;;;;;507741;29;861;-75
2022/03/25 00:15:44;;;;;;;33.30;22.13;;;;;;;;;;511491;29;1970;-75
2022/03/25 00:15:59;;;;;;;30.57;22.47;;;;;;;;;;511366;29;960;-75
2022/03/25 00:16:14;;;;;;;30.92;21.95;;;;;;;;;;511413;29;1166;-75
2022/03/25 00:16:30;;;;;;;32.23;21.70;;;;;;;;;;511628;28;912;-75
2022/03/25 00:16:46;;;;;;;33.27;22.00;;;;;;;;;;513269;28;936;-75
2022/03/25 00:17:01;;;;;;;32.38;22.25;;;;;;;;;;511494;29;1189;-75
2022/03/25 00:17:16;;;;;;;32.67;22.55;;;;;;;;;;509027;29;1198;-76
2022/03/25 00:17:32;;;;;;;33.57;22.20;;;;;;;;;;509213;29;976;-75
2022/03/25 00:17:47;;;;;;;32.30;22.35;;;;;;;;;;509452;29;933;-75
2022/03/25 00:18:03;;;;;;;33.57;22.30;;;;;;;;;;509797;29;718;-76
2022/03/25 00:18:18;;;;;;;33.93;22.10;;;;;;;;;;507339;29;1213;-75
2022/03/25 00:18:33;;;;;;;32.60;22.73;;;;;;;;;;505003;29;1522;-75
2022/03/25 00:18:49;;;;;;;34.87;22.60;;;;;;;;;;505842;29;815;-75
2022/03/25 00:19:04;;;;;;;34.20;21.98;;;;;;;;;;507788;29;885;-75
2022/03/25 00:19:19;;;;;;;32.43;21.97;;;;;;;;;;509093;29;926;-75
2022/03/25 00:19:35;;;;;;;32.90;22.17;;;;;;;;;;509092;29;727;-75
2022/03/25 00:19:50;;;;;;;32.05;21.75;;;;;;;;;;507139;29;1459;-76
2022/03/25 00:20:07;;;;;;;31.80;21.67;;;;;;;;;;508178;29;1187;-75
2022/03/25 00:20:23;;;;;;;32.13;21.83;;;;;;;;;;511115;29;1219;-75
2022/03/25 00:20:38;;;;;;;30.50;21.85;;;;;;;;;;509396;29;1378;-74
2022/03/25 00:20:55;;;;;;;31.97;21.83;;;;;;;;;;509591;29;872;-75
2022/03/25 00:21:10;;;;;;;32.15;21.65;;;;;;;;;;509445;29;818;-75
2022/03/25 00:21:26;;;;;;;30.73;21.40;;;;;;;;;;509372;29;754;-75
2022/03/25 00:21:41;;;;;;;33.40;21.98;;;;;;;;;;507327;29;1198;-74
2022/03/25 00:21:56;;;;;;;33.37;22.00;;;;;;;;;;508194;29;822;-75
2022/03/25 00:22:12;;;;;;;31.95;22.05;;;;;;;;;;509415;29;818;-75
2022/03/25 00:22:27;;;;;;;32.53;22.50;;;;;;;;;;509640;29;1115;-75
2022/03/25 00:22:42;;;;;;;33.47;22.23;;;;;;;;;;509368;29;1231;-75
2022/03/25 00:22:58;;;;;;;33.50;21.63;;;;;;;;;;509615;29;944;-75
2022/03/25 00:23:13;;;;;;;35.05;22.15;;;;;;;;;;509429;29;742;-76
2022/03/25 00:23:28;;;;;;;33.83;22.30;;;;;;;;;;508694;29;1544;-76
2022/03/25 00:23:44;;;;;;;32.30;21.92;;;;;;;;;;511146;29;960;-76
2022/03/25 00:23:59;;;;;;;32.67;22.00;;;;;;;;;;510686;29;1000;-75
2022/03/25 00:24:14;;;;;;;30.70;21.80;;;;;;;;;;511700;28;1078;-76
2022/03/25 00:24:29;;;;;;;30.93;21.90;;;;;;;;;;511586;28;1308;-76
2022/03/25 00:24:45;;;;;;;31.40;21.80;;;;;;;;;;513539;28;1462;-75
2022/03/25 00:25:00;;;;;;;31.60;22.10;;;;;;;;;;511767;28;1371;-75
2022/03/25 00:25:16;;;;;;;31.77;22.35;;;;;;;;;;511049;29;845;-75
2022/03/25 00:25:32;;;;;;;31.27;22.00;;;;;;;;;;512202;28;929;-75
2022/03/25 00:25:47;;;;;;;31.85;21.13;;;;;;;;;;513053;28;825;-75
2022/03/25 00:26:02;;;;;;;32.97;21.23;;;;;;;;;;510606;29;1384;-76
2022/03/25 00:26:18;;;;;;;33.13;22.25;;;;;;;;;;510289;29;1380;-75
2022/03/25 00:26:33;;;;;;;31.70;22.37;;;;;;;;;;511338;29;1421;-75
2022/03/25 00:26:48;;;;;;;35.03;22.17;;;;;;;;;;509040;29;1135;-75
2022/03/25 00:27:04;;;;;;;35.65;22.33;;;;;;;;;;510493;28;1461;-75
2022/03/25 00:27:19;;;;;;;31.90;22.37;;;;;;;;;;510917;28;1460;-75
2022/03/25 00:27:35;;;;;;;30.13;22.33;;;;;;;;;;509183;29;1171;-75
2022/03/25 00:27:50;;;;;;;30.85;22.30;;;;;;;;;;509192;29;868;-75
2022/03/25 00:28:06;;;;;;;34.42;22.52;;;;;;;;;;507328;29;1357;-75
2022/03/25 00:28:21;;;;;;;35.20;22.93;;;;;;;;;;505374;29;1689;-75
2022/03/25 00:28:37;;;;;;;34.75;22.55;;;;;;;;;;507021;29;775;-75
2022/03/25 00:28:52;;;;;;;33.67;22.00;;;;;;;;;;509336;29;770;-75
2022/03/25 00:29:08;;;;;;;33.73;22.20;;;;;;;;;;509383;29;802;-75
2022/03/25 00:29:24;;;;;;;32.70;22.10;;;;;;;;;;509645;29;965;-75
2022/03/25 00:29:41;;;;;;;32.47;22.23;;;;;;;;;;511380;29;798;-75
2022/03/25 00:29:57;;;;;;;33.50;22.38;;;;;;;;;;511700;28;810;-75
2022/03/25 00:30:12;;;;;;;33.73;22.30;;;;;;;;;;512570;28;837;-75
2022/03/25 00:30:28;;;;;;;33.78;21.88;;;;;;;;;;511426;29;1228;-75
2022/03/25 00:30:43;;;;;;;32.23;22.20;;;;;;;;;;511420;29;781;-76
2022/03/25 00:30:58;;;;;;;32.03;22.60;;;;;;;;;;509329;28;903;-75
2022/03/25 00:31:13;;;;;;;32.17;22.73;;;;;;;;;;510635;28;1272;-76
2022/03/25 00:31:29;;;;;;;31.90;23.10;;;;;;;;;;511703;29;770;-76
2022/03/25 00:31:44;;;;;;;32.57;22.73;;;;;;;;;;511350;29;726;-76
2022/03/25 00:31:59;;;;;;;32.60;22.20;;;;;;;;;;511037;29;738;-75
2022/03/25 00:32:16;;;;;;;30.40;22.33;;;;;;;;;;511778;28;797;-75
2022/03/25 00:32:31;;;;;;;31.23;22.08;;;;;;;;;;513239;28;1213;-75
2022/03/25 00:32:47;;;;;;;31.97;21.43;;;;;;;;;;512324;28;1134;-75
2022/03/25 00:33:02;;;;;;;34.72;21.95;;;;;;;;;;511385;29;1302;-75
2022/03/25 00:33:18;;;;;;;34.33;22.13;;;;;;;;;;511362;29;965;-75
2022/03/25 00:33:34;;;;;;;31.48;21.83;;;;;;;;;;509666;28;1430;-75
2022/03/25 00:33:49;;;;;;;32.20;22.35;;;;;;;;;;510876;29;1215;-76
2022/03/25 00:34:04;;;;;;;30.83;22.27;;;;;;;;;;506608;29;1201;-75
2022/03/25 00:34:20;;;;;;;30.80;21.90;;;;;;;;;;507326;29;901;-75
2022/03/25 00:34:35;;;;;;;30.38;21.52;;;;;;;;;;508576;29;1004;-75
2022/03/25 00:34:51;;;;;;;31.37;21.87;;;;;;;;;;509779;29;836;-76
2022/03/25 00:35:07;;;;;;;31.73;22.35;;;;;;;;;;511351;29;1281;-75
2022/03/25 00:35:22;;;;;;;31.35;22.48;;;;;;;;;;510908;29;1421;-75
2022/03/25 00:35:38;;;;;;;30.50;22.23;;;;;;;;;;509293;29;1339;-75
2022/03/25 00:35:53;;;;;;;29.65;21.63;;;;;;;;;;511754;28;1956;-75
2022/03/25 00:36:10;;;;;;;31.60;21.80;;;;;;;;;;510941;29;1333;-75
2022/03/25 00:36:25;;;;;;;33.88;22.23;;;;;;;;;;509478;29;1421;-76
2022/03/25 00:36:40;;;;;;;33.03;22.50;;;;;;;;;;509361;29;723;-75
2022/03/25 00:36:55;;;;;;;30.77;21.90;;;;;;;;;;509517;29;775;-75
2022/03/25 00:37:11;;;;;;;29.70;21.38;;;;;;;;;;509397;29;932;-75
2022/03/25 00:37:26;;;;;;;29.90;21.67;;;;;;;;;;508834;29;1316;-75
2022/03/25 00:37:42;;;;;;;29.97;21.73;;;;;;;;;;508369;29;1388;-75
2022/03/25 00:37:59;;;;;;;32.58;22.15;;;;;;;;;;508608;29;1431;-75
2022/03/25 00:38:14;;;;;;;33.78;22.23;;;;;;;;;;508853;29;1254;-75
2022/03/25 00:38:30;;;;;;;30.07;21.83;;;;;;;;;;509502;29;1403;-75
2022/03/25 00:38:45;;;;;;;31.52;21.73;;;;;;;;;;507666;29;1128;-75
2022/03/25 00:39:00;;;;;;;34.30;21.93;;;;;;;;;;506639;29;1152;-75
2022/03/25 00:39:16;;;;;;;33.95;22.60;;;;;;;;;;507374;29;791;-75
2022/03/25 00:39:31;;;;;;;33.30;22.50;;;;;;;;;;508845;29;909;-75
2022/03/25 00:39:46;;;;;;;33.70;22.03;;;;;;;;;;509323;29;1170;-75
2022/03/25 00:40:03;;;;;;;31.80;22.13;;;;;;;;;;509155;29;766;-75
2022/03/25 00:40:18;;;;;;;31.42;22.02;;;;;;;;;;505513;29;1436;-75
2022/03/25 00:40:33;;;;;;;32.83;22.03;;;;;;;;;;505125;29;1519;-75
2022/03/25 00:40:49;;;;;;;33.03;22.77;;;;;;;;;;506679;29;1373;-75
2022/03/25 00:41:06;;;;;;;33.23;23.07;;;;;;;;;;506227;29;1436;-75
2022/03/25 00:41:23;;;;;;;32.00;22.33;;;;;;;;;;505142;29;1403;-75
2022/03/25 00:41:39;;;;;;;32.10;22.10;;;;;;;;;;505527;29;861;-76
2022/03/25 00:41:54;;;;;;;33.80;22.67;;;;;;;;;;503668;29;1191;-75
2022/03/25 00:42:12;;;;;;;33.23;22.07;;;;;;;;;;504332;29;724;-75
2022/03/25 00:42:27;;;;;;;34.45;22.45;;;;;;;;;;505794;29;1780;-75
2022/03/25 00:42:43;;;;;;;34.67;22.83;;;;;;;;;;507384;29;1175;-76
2022/03/25 00:42:58;;;;;;;31.70;22.10;;;;;;;;;;508598;29;727;-75
2022/03/25 00:43:13;;;;;;;33.25;22.77;;;;;;;;;;507444;29;1303;-75
2022/03/25 00:43:29;;;;;;;34.47;23.20;;;;;;;;;;506703;29;1514;-75
2022/03/25 00:43:46;;;;;;;33.40;22.80;;;;;;;;;;507506;29;910;-75
2022/03/25 00:44:01;;;;;;;33.53;22.35;;;;;;;;;;506094;29;1426;-75
2022/03/25 00:44:18;;;;;;;32.63;22.58;;;;;;;;;;505442;29;1191;-75
2022/03/25 00:44:33;;;;;;;32.00;22.17;;;;;;;;;;504432;29;1279;-75
2022/03/25 00:44:48;;;;;;;32.47;22.17;;;;;;;;;;507469;29;746;-75
2022/03/25 00:45:05;;;;;;;31.50;22.60;;;;;;;;;;508071;29;746;-75
2022/03/25 00:45:21;;;;;;;30.45;23.00;;;;;;;;;;508845;29;1241;-75
2022/03/25 00:45:36;;;;;;;32.03;23.08;;;;;;;;;;509636;29;779;-75
2022/03/25 00:45:51;;;;;;;32.75;22.88;;;;;;;;;;508082;29;1375;-75
2022/03/25 00:46:06;;;;;;;34.20;23.07;;;;;;;;;;510015;29;914;-75
2022/03/25 00:46:22;;;;;;;32.83;22.47;;;;;;;;;;509398;29;1259;-75
2022/03/25 00:46:37;;;;;;;33.83;22.40;;;;;;;;;;506696;29;1155;-75
2022/03/25 00:46:52;;;;;;;34.53;23.17;;;;;;;;;;507409;29;793;-75
2022/03/25 00:47:08;;;;;;;33.13;23.27;;;;;;;;;;507537;29;850;-75
2022/03/25 00:47:23;;;;;;;34.63;23.03;;;;;;;;;;507600;29;1231;-75
2022/03/25 00:47:38;;;;;;;33.28;22.85;;;;;;;;;;507790;29;2541;-76
2022/03/25 00:47:54;;;;;;;32.97;22.70;;;;;;;;;;509429;29;1254;-75
2022/03/25 00:48:09;;;;;;;33.97;23.10;;;;;;;;;;509628;29;960;-75
2022/03/25 00:48:25;;;;;;;34.03;23.27;;;;;;;;;;510865;29;1524;-75
2022/03/25 00:48:40;;;;;;;32.80;23.10;;;;;;;;;;510666;29;949;-75
2022/03/25 00:48:56;;;;;;;30.40;22.40;;;;;;;;;;510473;29;1048;-75
2022/03/25 00:49:11;;;;;;;31.63;22.30;;;;;;;;;;511489;28;1087;-76
2022/03/25 00:49:26;;;;;;;33.43;22.63;;;;;;;;;;509535;29;1197;-76
2022/03/25 00:49:42;;;;;;;33.13;22.60;;;;;;;;;;509911;29;1261;-76
2022/03/25 00:49:57;;;;;;;32.58;22.25;;;;;;;;;;509506;29;1244;-76
2022/03/25 00:50:14;;;;;;;32.97;22.47;;;;;;;;;;509292;29;916;-76
2022/03/25 00:50:29;;;;;;;32.70;23.15;;;;;;;;;;509589;29;821;-78
2022/03/25 00:50:44;;;;;;;34.27;23.60;;;;;;;;;;508929;29;1345;-76
2022/03/25 00:51:00;;;;;;;34.67;23.30;;;;;;;;;;507680;29;1210;-76
2022/03/25 00:51:15;;;;;;;33.45;22.65;;;;;;;;;;507804;29;747;-76
2022/03/25 00:51:30;;;;;;;33.60;22.83;;;;;;;;;;508058;29;837;-76
2022/03/25 00:51:46;;;;;;;35.50;23.67;;;;;;;;;;507815;29;1181;-76
2022/03/25 00:52:01;;;;;;;35.83;23.30;;;;;;;;;;509483;29;754;-76
2022/03/25 00:52:18;;;;;;;34.28;22.88;;;;;;;;;;509381;29;777;-76
2022/03/25 00:52:34;;;;;;;32.17;22.52;;;;;;;;;;509763;29;1387;-75
2022/03/25 00:52:50;;;;;;;31.85;22.30;;;;;;;;;;511524;28;794;-76
2022/03/25 00:53:06;;;;;;;32.05;22.02;;;;;;;;;;513494;28;872;-76
2022/03/25 00:53:21;;;;;;;30.80;22.27;;;;;;;;;;510697;29;1528;-76
2022/03/25 00:53:37;;;;;;;32.42;22.83;;;;;;;;;;509650;29;1286;-75
2022/03/25 00:53:52;;;;;;;32.20;22.23;;;;;;;;;;508972;29;1314;-76
2022/03/25 00:54:09;;;;;;;32.17;21.73;;;;;;;;;;507226;29;1047;-76
2022/03/25 00:54:25;;;;;;;33.28;22.17;;;;;;;;;;507693;29;806;-76
2022/03/25 00:54:40;;;;;;;31.50;22.70;;;;;;;;;;509440;29;747;-76
2022/03/25 00:54:55;;;;;;;32.93;22.70;;;;;;;;;;509159;29;728;-76
2022/03/25 00:55:11;;;;;;;33.05;22.67;;;;;;;;;;507764;29;1257;-76
2022/03/25 00:55:26;;;;;;;32.27;23.03;;;;;;;;;;510093;29;755;-76
2022/03/25 00:55:41;;;;;;;31.40;22.80;;;;;;;;;;509936;29;1254;-75
2022/03/25 00:55:57;;;;;;;32.83;23.02;;;;;;;;;;509395;29;1918;-75
2022/03/25 00:56:12;;;;;;;35.60;23.17;;;;;;;;;;509642;29;750;-76
2022/03/25 00:56:27;;;;;;;36.47;22.87;;;;;;;;;;509538;29;806;-76
2022/03/25 00:56:43;;;;;;;33.53;22.80;;;;;;;;;;509578;29;925;-75
2022/03/25 00:56:58;;;;;;;34.30;23.23;;;;;;;;;;509440;29;928;-75
2022/03/25 00:57:13;;;;;;;33.40;23.03;;;;;;;;;;509161;29;1259;-76
2022/03/25 00:57:28;;;;;;;32.85;23.13;;;;;;;;;;509412;29;765;-75
2022/03/25 00:57:44;;;;;;;35.43;23.43;;;;;;;;;;509738;29;1473;-75
2022/03/25 00:58:00;;;;;;;35.90;23.02;;;;;;;;;;509366;29;1247;-75
2022/03/25 00:58:15;;;;;;;35.70;22.92;;;;;;;;;;509716;29;963;-75
2022/03/25 00:58:32;;;;;;;34.17;22.43;;;;;;;;;;509548;29;1508;-76
2022/03/25 00:58:47;;;;;;;32.28;22.55;;;;;;;;;;511084;29;879;-76
2022/03/25 00:59:03;;;;;;;35.93;23.03;;;;;;;;;;508927;29;1150;-75
2022/03/25 00:59:18;;;;;;;35.80;22.93;;;;;;;;;;509497;29;746;-75
2022/03/25 00:59:33;;;;;;;33.58;23.10;;;;;;;;;;509476;29;912;-76
2022/03/25 00:59:49;;;;;;;33.53;23.20;;;;;;;;;;511795;28;780;-76
2022/03/25 01:00:05;;;;;;;32.23;22.90;;;;;;;;;;513177;28;812;-75
2022/03/25 01:00:20;;;;;;;35.53;22.98;;;;;;;;;;511107;29;1512;-75
2022/03/25 01:00:36;;;;;;;35.67;23.23;;;;;;;;;;509572;29;1272;-75
2022/03/25 01:00:51;;;;;;;32.25;22.73;;;;;;;;;;507897;29;1319;-75
2022/03/25 01:01:06;;;;;;;33.50;22.90;;;;;;;;;;509175;29;932;-76
2022/03/25 01:01:22;;;;;;;34.77;22.87;;;;;;;;;;509442;29;753;-76
2022/03/25 01:01:38;;;;;;;34.65;22.95;;;;;;;;;;507505;29;1483;-76
2022/03/25 01:01:53;;;;;;;35.53;23.67;;;;;;;;;;507676;29;896;-75
2022/03/25 01:02:08;;;;;;;34.42;23.33;;;;;;;;;;508071;29;802;-75
2022/03/25 01:02:24;;;;;;;32.47;22.67;;;;;;;;;;509944;29;754;-75
2022/03/25 01:02:39;;;;;;;32.20;23.13;;;;;;;;;;509539;29;790;-75
2022/03/25 01:02:54;;;;;;;32.47;23.40;;;;;;;;;;509583;29;1150;-76
2022/03/25 01:03:10;;;;;;;33.47;22.60;;;;;;;;;;505470;29;1157;-76
2022/03/25 01:03:25;;;;;;;32.67;22.80;;;;;;;;;;507418;29;1454;-76
2022/03/25 01:03:40;;;;;;;32.60;23.43;;;;;;;;;;510503;29;1340;-76
2022/03/25 01:03:56;;;;;;;31.90;23.07;;;;;;;;;;509443;29;1225;-75
2022/03/25 01:04:11;;;;;;;32.97;23.08;;;;;;;;;;509229;29;1325;-76
2022/03/25 01:04:27;;;;;;;33.47;23.60;;;;;;;;;;508559;29;1257;-76
2022/03/25 01:04:42;;;;;;;32.60;23.08;;;;;;;;;;507610;29;770;-76
2022/03/25 01:04:57;;;;;;;32.17;22.47;;;;;;;;;;507842;29;789;-76
2022/03/25 01:05:13;;;;;;;32.65;22.83;;;;;;;;;;508889;29;1166;-75
2022/03/25 01:05:28;;;;;;;34.03;22.90;;;;;;;;;;509427;29;904;-75
2022/03/25 01:05:43;;;;;;;34.30;22.73;;;;;;;;;;509260;29;1305;-76
2022/03/25 01:05:58;;;;;;;33.33;22.77;;;;;;;;;;507622;29;1270;-75
2022/03/25 01:06:14;;;;;;;32.92;22.80;;;;;;;;;;509571;29;813;-75
2022/03/25 01:06:29;;;;;;;32.03;22.97;;;;;;;;;;511312;29;773;-76
2022/03/25 01:06:45;;;;;;;32.47;22.80;;;;;;;;;;511125;29;1087;-76
2022/03/25 01:07:01;;;;;;;33.60;23.13;;;;;;;;;;511175;29;841;-76
2022/03/25 01:07:17;;;;;;;35.93;23.30;;;;;;;;;;509183;29;833;-76
2022/03/25 01:07:34;;;;;;;36.30;23.13;;;;;;;;;;509628;29;950;-75
2022/03/25 01:07:49;;;;;;;33.80;23.27;;;;;;;;;;509871;29;1214;-75
2022/03/25 01:08:07;;;;;;;32.90;23.33;;;;;;;;;;511239;29;789;-75
2022/03/25 01:08:22;;;;;;;32.10;23.00;;;;;;;;;;509040;29;1568;-76
2022/03/25 01:08:38;;;;;;;31.90;23.15;;;;;;;;;;510746;29;996;-76
2022/03/25 01:08:53;;;;;;;31.70;23.17;;;;;;;;;;509752;29;933;-76
2022/03/25 01:09:08;;;;;;;31.90;23.33;;;;;;;;;;511505;29;761;-76
2022/03/25 01:09:24;;;;;;;33.17;23.37;;;;;;;;;;511015;29;920;-76
2022/03/25 01:09:40;;;;;;;33.53;23.20;;;;;;;;;;509997;29;766;-76
2022/03/25 01:09:55;;;;;;;33.47;22.97;;;;;;;;;;511536;29;809;-76
2022/03/25 01:10:11;;;;;;;34.17;22.88;;;;;;;;;;511362;29;780;-75
2022/03/25 01:10:26;;;;;;;34.50;23.10;;;;;;;;;;511693;28;816;-76
2022/03/25 01:10:43;;;;;;;35.63;23.43;;;;;;;;;;513138;28;1489;-76
2022/03/25 01:10:58;;;;;;;35.70;23.63;;;;;;;;;;513455;28;770;-75
2022/03/25 01:11:13;;;;;;;32.50;23.08;;;;;;;;;;513590;28;796;-76
2022/03/25 01:11:29;;;;;;;31.13;22.50;;;;;;;;;;510473;29;1228;-76
2022/03/25 01:11:44;;;;;;;31.50;22.33;;;;;;;;;;511171;29;742;-76
2022/03/25 01:12:00;;;;;;;31.58;22.33;;;;;;;;;;511085;29;1296;-76
2022/03/25 01:12:15;;;;;;;31.05;22.58;;;;;;;;;;511451;29;1197;-75
2022/03/25 01:12:31;;;;;;;31.30;23.10;;;;;;;;;;511682;28;1179;-75
2022/03/25 01:12:46;;;;;;;34.43;23.70;;;;;;;;;;511464;29;1320;-75
2022/03/25 01:13:03;;;;;;;35.45;23.58;;;;;;;;;;511440;29;813;-75
2022/03/25 01:13:18;;;;;;;35.70;23.65;;;;;;;;;;511314;29;1718;-76
2022/03/25 01:13:33;;;;;;;34.60;23.77;;;;;;;;;;510057;29;1591;-76
2022/03/25 01:13:49;;;;;;;32.67;23.43;;;;;;;;;;507648;29;1166;-76
2022/03/25 01:14:04;;;;;;;32.73;23.13;;;;;;;;;;506885;29;1180;-76
2022/03/25 01:14:20;;;;;;;34.42;23.23;;;;;;;;;;507665;29;1353;-75
2022/03/25 01:14:35;;;;;;;34.40;23.48;;;;;;;;;;505505;29;1157;-76
2022/03/25 01:14:50;;;;;;;33.57;23.30;;;;;;;;;;507337;29;1166;-76
2022/03/25 01:15:06;;;;;;;33.87;22.57;;;;;;;;;;507787;29;851;-75
2022/03/25 01:15:22;;;;;;;32.42;21.88;;;;;;;;;;509377;29;734;-75
2022/03/25 01:15:37;;;;;;;31.50;22.70;;;;;;;;;;507731;29;1190;-76
2022/03/25 01:15:53;;;;;;;33.30;22.85;;;;;;;;;;507722;29;1910;-76
2022/03/25 01:16:08;;;;;;;36.35;22.38;;;;;;;;;;506263;29;1194;-75
2022/03/25 01:16:24;;;;;;;35.47;22.87;;;;;;;;;;508583;29;929;-76
2022/03/25 01:16:39;;;;;;;32.35;22.90;;;;;;;;;;507299;29;1313;-76
2022/03/25 01:16:55;;;;;;;33.70;22.87;;;;;;;;;;507768;29;1285;-76
2022/03/25 01:17:11;;;;;;;34.60;23.08;;;;;;;;;;507944;29;953;-76
2022/03/25 01:17:27;;;;;;;34.53;23.52;;;;;;;;;;508072;29;941;-76
2022/03/25 01:17:43;;;;;;;34.40;23.38;;;;;;;;;;510177;29;786;-75
2022/03/25 01:17:58;;;;;;;33.70;23.48;;;;;;;;;;512349;28;789;-76
2022/03/25 01:18:14;;;;;;;32.60;23.13;;;;;;;;;;511856;29;1165;-76
2022/03/25 01:18:30;;;;;;;33.25;23.33;;;;;;;;;;511593;28;1311;-76
2022/03/25 01:18:46;;;;;;;32.90;23.67;;;;;;;;;;511560;29;1466;-76
2022/03/25 01:19:02;;;;;;;32.65;23.83;;;;;;;;;;511896;29;765;-76
2022/03/25 01:19:19;;;;;;;34.40;23.70;;;;;;;;;;511794;29;1125;-76
2022/03/25 01:19:34;;;;;;;33.47;23.55;;;;;;;;;;511598;29;789;-76
2022/03/25 01:19:50;;;;;;;36.13;23.67;;;;;;;;;;511494;29;936;-77
2022/03/25 01:20:06;;;;;;;37.17;23.20;;;;;;;;;;511484;29;816;-76
2022/03/25 01:20:21;;;;;;;34.75;22.60;;;;;;;;;;509506;29;1253;-76
2022/03/25 01:20:37;;;;;;;32.67;22.57;;;;;;;;;;508961;29;1183;-76
2022/03/25 01:20:52;;;;;;;32.70;23.50;;;;;;;;;;507863;29;1290;-76
2022/03/25 01:21:07;;;;;;;33.07;23.30;;;;;;;;;;507930;29;746;-77
2022/03/25 01:21:22;;;;;;;34.40;22.63;;;;;;;;;;507773;29;789;-76
2022/03/25 01:21:38;;;;;;;35.72;22.77;;;;;;;;;;507806;29;943;-77
2022/03/25 01:21:55;;;;;;;34.40;23.20;;;;;;;;;;507504;29;845;-76
2022/03/25 01:22:11;;;;;;;33.20;22.83;;;;;;;;;;508116;29;960;-76
2022/03/25 01:22:26;;;;;;;32.43;22.60;;;;;;;;;;510130;29;847;-76
2022/03/25 01:22:42;;;;;;;33.55;23.08;;;;;;;;;;509948;29;1230;-77
2022/03/25 01:22:57;;;;;;;33.83;23.20;;;;;;;;;;509702;29;1238;-76
2022/03/25 01:23:12;;;;;;;31.87;22.60;;;;;;;;;;507933;29;1251;-76
2022/03/25 01:23:28;;;;;;;32.72;22.63;;;;;;;;;;508131;29;1551;-76
2022/03/25 01:23:48;;;;;;;33.57;23.03;;;;;;;;;;509817;29;746;-76
2022/03/25 01:24:04;;;;;;;33.92;23.15;;;;;;;;;;508785;29;856;-76
2022/03/25 01:24:20;;;;;;;34.63;23.63;;;;;;;;;;509917;29;813;-76
2022/03/25 01:24:35;;;;;;;33.53;23.10;;;;;;;;;;510629;29;871;-76
2022/03/25 01:24:51;;;;;;;36.08;22.50;;;;;;;;;;512915;28;741;-76
2022/03/25 01:25:08;;;;;;;37.37;23.13;;;;;;;;;;512690;28;1178;-76
2022/03/25 01:25:24;;;;;;;37.17;23.83;;;;;;;;;;513542;28;801;-76
2022/03/25 01:25:39;;;;;;;38.65;23.65;;;;;;;;;;513704;28;734;-76
2022/03/25 01:25:54;;;;;;;34.85;23.45;;;;;;;;;;511755;29;1418;-76
2022/03/25 01:26:10;;;;;;;32.97;23.23;;;;;;;;;;509426;29;1324;-76
2022/03/25 01:26:25;;;;;;;32.80;22.80;;;;;;;;;;509607;29;1318;-77
2022/03/25 01:26:42;;;;;;;30.90;22.60;;;;;;;;;;509237;29;1467;-76
2022/03/25 01:26:57;;;;;;;33.00;23.77;;;;;;;;;;508451;29;1361;-76
2022/03/25 01:27:13;;;;;;;35.73;23.63;;;;;;;;;;509745;29;1453;-76
2022/03/25 01:27:28;;;;;;;34.53;23.40;;;;;;;;;;509898;29;723;-76
2022/03/25 01:27:44;;;;;;;33.10;22.98;;;;;;;;;;510278;29;857;-76
2022/03/25 01:27:59;;;;;;;34.17;23.10;;;;;;;;;;508194;29;1183;-76
2022/03/25 01:28:14;;;;;;;37.58;23.92;;;;;;;;;;509474;29;1452;-77
2022/03/25 01:28:34;;;;;;;37.03;23.43;;;;;;;;;;510071;29;1545;-76
2022/03/25 01:28:49;;;;;;;34.42;22.92;;;;;;;;;;510879;29;837;-77
2022/03/25 01:29:05;;;;;;;31.93;23.07;;;;;;;;;;513578;28;940;-76
2022/03/25 01:29:20;;;;;;;33.00;23.27;;;;;;;;;;511778;29;1146;-76
2022/03/25 01:29:35;;;;;;;35.70;23.37;;;;;;;;;;510127;29;817;-76
2022/03/25 01:29:50;;;;;;;34.10;22.97;;;;;;;;;;507853;29;1226;-76
2022/03/25 01:30:06;;;;;;;31.93;22.73;;;;;;;;;;508728;29;1001;-76
2022/03/25 01:30:22;;;;;;;33.42;23.23;;;;;;;;;;507226;29;1342;-76
2022/03/25 01:30:37;;;;;;;32.72;22.80;;;;;;;;;;507816;29;1308;-76
2022/03/25 01:30:52;;;;;;;33.33;22.50;;;;;;;;;;505925;29;1393;-77
2022/03/25 01:31:09;;;;;;;34.30;23.40;;;;;;;;;;506327;29;933;-76
2022/03/25 01:31:24;;;;;;;33.70;23.17;;;;;;;;;;507990;29;868;-76
2022/03/25 01:31:39;;;;;;;33.57;23.03;;;;;;;;;;508046;29;739;-76
2022/03/25 01:31:55;;;;;;;34.17;23.33;;;;;;;;;;509664;29;984;-76
2022/03/25 01:32:10;;;;;;;33.37;23.37;;;;;;;;;;509894;29;722;-77
2022/03/25 01:32:26;;;;;;;34.58;23.48;;;;;;;;;;511178;28;951;-76
2022/03/25 01:32:41;;;;;;;35.67;24.03;;;;;;;;;;511760;29;773;-76
2022/03/25 01:32:56;;;;;;;34.80;24.10;;;;;;;;;;511808;29;853;-76
2022/03/25 01:33:12;;;;;;;33.63;23.23;;;;;;;;;;511889;29;752;-76
2022/03/25 01:33:28;;;;;;;32.03;23.23;;;;;;;;;;511984;28;1480;-76
2022/03/25 01:33:44;;;;;;;34.92;23.73;;;;;;;;;;512701;28;1357;-76
2022/03/25 01:33:59;;;;;;;36.70;23.63;;;;;;;;;;510448;29;1166;-76
2022/03/25 01:34:15;;;;;;;34.87;22.93;;;;;;;;;;507931;29;1536;-76